Time;durP1;ratioP1;P1;durP2;ratioP2;P2;SDS_P1;SDS_P2;PMS_P1;PMS_P2;Temp;Humidity;BMP_temperature;BMP_pressure;BME280_temperature;BME280_humidity;BME280_pressure;Samples;Min_cycle;Max_cycle;Signal;HPM_P1;HPM_P2
2023/06/23 00:01:26;;;;;;;10.85;6.28;;;;;;;;;;5030193;28;20238;-58
2023/06/23 00:03:54;;;;;;;10.77;6.05;;;;;;;;;;5029180;28;20299;-57
2023/06/23 00:06:22;;;;;;;9.90;5.90;;;;;;;;;;5042480;28;20568;-57
2023/06/23 00:08:50;;;;;;;12.33;6.97;;;;;;;;;;5029678;28;20040;-57
2023/06/23 00:11:19;;;;;;;12.75;6.30;;;;;;;;;;5031448;28;20056;-57
2023/06/23 00:13:47;;;;;;;12.15;6.10;;;;;;;;;;5025415;28;20087;-58
2023/06/23 00:16:15;;;;;;;11.95;5.93;;;;;;;;;;5032981;28;20765;-57
2023/06/23 00:18:43;;;;;;;12.55;6.60;;;;;;;;;;5023482;28;20055;-58
2023/06/23 00:21:11;;;;;;;11.40;6.17;;;;;;;;;;5023041;28;20048;-57
2023/06/23 00:23:39;;;;;;;12.77;6.97;;;;;;;;;;5023014;28;20512;-58
2023/06/23 00:26:07;;;;;;;10.27;6.40;;;;;;;;;;5028549;28;20622;-58
2023/06/23 00:28:36;;;;;;;13.27;6.47;;;;;;;;;;5033500;28;20434;-57
2023/06/23 00:31:05;;;;;;;12.57;6.72;;;;;;;;;;5034578;28;20044;-58
2023/06/23 00:33:34;;;;;;;13.03;6.67;;;;;;;;;;5028985;28;20060;-57
2023/06/23 00:36:02;;;;;;;12.35;6.80;;;;;;;;;;5021432;28;21049;-57
2023/06/23 00:38:29;;;;;;;12.23;6.40;;;;;;;;;;5039492;28;20056;-57
2023/06/23 00:40:59;;;;;;;12.02;6.55;;;;;;;;;;5023914;28;20046;-57
2023/06/23 00:43:30;;;;;;;12.13;6.95;;;;;;;;;;5039824;28;20055;-57
2023/06/23 00:46:01;;;;;;;14.40;6.63;;;;;;;;;;5020004;28;20041;-58
2023/06/23 00:48:29;;;;;;;12.88;6.38;;;;;;;;;;5032762;28;20041;-58
2023/06/23 00:50:58;;;;;;;15.35;7.10;;;;;;;;;;5027330;28;20052;-59
2023/06/23 00:53:27;;;;;;;11.63;7.05;;;;;;;;;;5037296;28;20052;-58
2023/06/23 00:55:56;;;;;;;12.52;7.45;;;;;;;;;;5044015;28;20091;-58
2023/06/23 00:58:23;;;;;;;14.33;7.30;;;;;;;;;;5026832;28;20049;-58
2023/06/23 01:00:51;;;;;;;13.82;6.82;;;;;;;;;;5032801;28;20534;-58
2023/06/23 01:03:19;;;;;;;13.25;7.03;;;;;;;;;;5028797;28;20041;-58
2023/06/23 01:05:48;;;;;;;13.27;6.90;;;;;;;;;;5045828;28;20639;-58
2023/06/23 01:08:25;;;;;;;12.82;6.50;;;;;;;;;;5025699;28;20683;-58
2023/06/23 01:10:57;;;;;;;14.23;7.23;;;;;;;;;;5041196;28;20051;-59
2023/06/23 01:13:30;;;;;;;12.68;6.68;;;;;;;;;;5026450;28;20055;-59
2023/06/23 01:16:02;;;;;;;13.68;6.85;;;;;;;;;;5043761;28;20822;-58
2023/06/23 01:18:37;;;;;;;14.52;7.53;;;;;;;;;;5032852;28;20048;-58
2023/06/23 01:21:07;;;;;;;12.52;6.75;;;;;;;;;;5050912;28;20033;-58
2023/06/23 01:23:46;;;;;;;15.60;7.10;;;;;;;;;;5027277;28;20041;-58
2023/06/23 01:26:18;;;;;;;17.80;7.18;;;;;;;;;;5030239;28;20065;-59
2023/06/23 01:28:53;;;;;;;14.85;7.20;;;;;;;;;;5033185;28;20041;-58
2023/06/23 01:31:23;;;;;;;11.43;6.53;;;;;;;;;;5014145;28;20403;-54
2023/06/23 01:33:56;;;;;;;13.95;7.18;;;;;;;;;;5014139;28;20792;-59
2023/06/23 01:36:26;;;;;;;12.97;7.07;;;;;;;;;;5033909;28;20048;-58
2023/06/23 01:38:58;;;;;;;12.88;6.40;;;;;;;;;;5032099;28;20219;-58
2023/06/23 01:41:28;;;;;;;14.00;6.65;;;;;;;;;;5037182;28;20044;-58
2023/06/23 01:43:58;;;;;;;13.85;6.45;;;;;;;;;;5018271;28;20051;-59
2023/06/23 01:46:34;;;;;;;12.75;6.70;;;;;;;;;;5031978;28;20041;-58
2023/06/23 01:49:10;;;;;;;14.43;6.73;;;;;;;;;;5031764;28;20042;-59
2023/06/23 01:51:39;;;;;;;14.15;6.82;;;;;;;;;;5024580;28;20048;-58
2023/06/23 01:54:08;;;;;;;14.88;6.72;;;;;;;;;;5035845;28;20040;-59
2023/06/23 01:56:38;;;;;;;13.35;7.30;;;;;;;;;;5021899;28;20064;-58
2023/06/23 01:59:08;;;;;;;14.30;6.90;;;;;;;;;;5035442;28;20037;-59
2023/06/23 02:01:37;;;;;;;14.23;6.87;;;;;;;;;;5037116;28;20032;-59
2023/06/23 02:04:06;;;;;;;12.98;6.65;;;;;;;;;;5040498;28;20036;-58
2023/06/23 02:06:36;;;;;;;12.80;7.00;;;;;;;;;;5044931;28;20100;-59
2023/06/23 02:09:05;;;;;;;14.75;7.25;;;;;;;;;;4999834;28;20120;-58
2023/06/23 02:11:34;;;;;;;13.98;7.30;;;;;;;;;;5023664;28;20797;-60
2023/06/23 02:14:02;;;;;;;14.93;7.47;;;;;;;;;;5008735;28;21216;-58
2023/06/23 02:16:32;;;;;;;13.68;7.28;;;;;;;;;;5023788;28;20041;-58
2023/06/23 02:19:01;;;;;;;13.68;7.05;;;;;;;;;;5030465;28;20049;-59
2023/06/23 02:21:29;;;;;;;13.82;7.53;;;;;;;;;;5032477;28;20360;-58
2023/06/23 02:23:59;;;;;;;11.85;7.07;;;;;;;;;;5005799;28;20036;-58
2023/06/23 02:26:27;;;;;;;14.90;7.20;;;;;;;;;;5043312;28;20032;-58
2023/06/23 02:28:55;;;;;;;12.32;6.57;;;;;;;;;;5031690;28;20068;-59
2023/06/23 02:31:24;;;;;;;11.95;6.75;;;;;;;;;;5030407;28;20037;-59
2023/06/23 02:33:54;;;;;;;14.57;6.95;;;;;;;;;;5042233;28;20041;-58
2023/06/23 02:36:24;;;;;;;17.98;6.93;;;;;;;;;;5038530;28;20040;-58
2023/06/23 02:38:55;;;;;;;14.50;7.17;;;;;;;;;;5025794;28;20043;-59
2023/06/23 02:41:24;;;;;;;15.65;7.47;;;;;;;;;;5042971;28;20405;-58
2023/06/23 02:43:54;;;;;;;13.80;6.63;;;;;;;;;;5027937;28;20051;-59
2023/06/23 02:46:24;;;;;;;14.50;6.90;;;;;;;;;;5038945;28;20256;-58
2023/06/23 02:48:54;;;;;;;15.80;7.45;;;;;;;;;;5032876;28;20111;-59
2023/06/23 02:51:24;;;;;;;14.23;7.13;;;;;;;;;;5028141;28;20862;-57
2023/06/23 02:53:55;;;;;;;15.43;7.38;;;;;;;;;;5050158;28;20045;-58
2023/06/23 02:56:25;;;;;;;15.73;7.60;;;;;;;;;;5024675;28;20621;-57
2023/06/23 02:58:58;;;;;;;13.02;7.07;;;;;;;;;;5044728;28;20040;-58
2023/06/23 03:01:27;;;;;;;13.85;7.07;;;;;;;;;;5019455;28;20052;-59
2023/06/23 03:03:57;;;;;;;14.73;7.00;;;;;;;;;;5044008;28;20075;-58
2023/06/23 03:06:24;;;;;;;16.67;8.02;;;;;;;;;;5011001;28;20037;-58
2023/06/23 03:08:54;;;;;;;13.55;7.03;;;;;;;;;;5046020;28;20032;-59
2023/06/23 03:11:22;;;;;;;13.80;7.80;;;;;;;;;;5023432;28;20423;-56
2023/06/23 03:13:49;;;;;;;12.90;7.05;;;;;;;;;;5039019;28;20426;-58
2023/06/23 03:16:20;;;;;;;13.13;7.20;;;;;;;;;;5031997;28;20511;-58
2023/06/23 03:18:52;;;;;;;14.57;7.63;;;;;;;;;;5017849;28;20029;-58
2023/06/23 03:21:22;;;;;;;14.27;7.20;;;;;;;;;;5041094;28;20064;-58
2023/06/23 03:23:52;;;;;;;14.63;7.00;;;;;;;;;;5030794;28;20814;-58
2023/06/23 03:26:20;;;;;;;14.77;7.68;;;;;;;;;;5031199;28;20056;-58
2023/06/23 03:28:49;;;;;;;13.90;7.20;;;;;;;;;;5032222;28;20037;-58
2023/06/23 03:31:18;;;;;;;15.32;7.78;;;;;;;;;;5023737;28;20502;-58
2023/06/23 03:33:48;;;;;;;14.63;7.53;;;;;;;;;;5014586;28;20068;-58
2023/06/23 03:36:17;;;;;;;17.48;7.50;;;;;;;;;;5036068;28;20097;-58
2023/06/23 03:38:47;;;;;;;15.15;7.20;;;;;;;;;;5028856;28;20514;-58
2023/06/23 03:41:15;;;;;;;16.83;8.20;;;;;;;;;;5040787;28;20052;-58
2023/06/23 03:43:49;;;;;;;14.95;7.75;;;;;;;;;;5019629;28;20052;-55
2023/06/23 03:46:20;;;;;;;15.13;7.53;;;;;;;;;;5031819;28;20052;-56
2023/06/23 03:48:48;;;;;;;15.68;7.35;;;;;;;;;;5024125;28;20079;-56
2023/06/23 03:51:19;;;;;;;16.02;7.75;;;;;;;;;;5031051;28;20056;-55
2023/06/23 03:53:51;;;;;;;16.23;7.70;;;;;;;;;;5035557;28;20048;-56
2023/06/23 03:56:19;;;;;;;15.73;7.78;;;;;;;;;;5029326;28;20505;-56
2023/06/23 03:58:47;;;;;;;16.33;7.47;;;;;;;;;;5033703;28;20048;-57
2023/06/23 04:01:18;;;;;;;17.92;8.43;;;;;;;;;;5034832;28;20044;-57
2023/06/23 04:03:49;;;;;;;15.57;7.78;;;;;;;;;;5036782;28;20051;-57
2023/06/23 04:06:19;;;;;;;17.30;8.00;;;;;;;;;;5031054;28;20530;-56
2023/06/23 04:08:47;;;;;;;19.75;7.90;;;;;;;;;;5040021;28;20068;-57
2023/06/23 04:11:16;;;;;;;15.50;7.60;;;;;;;;;;5022492;28;20041;-57
2023/06/23 04:13:45;;;;;;;16.00;7.80;;;;;;;;;;5041561;28;20260;-57
2023/06/23 04:16:13;;;;;;;16.35;7.60;;;;;;;;;;5034775;28;20049;-57
2023/06/23 04:18:43;;;;;;;14.47;7.27;;;;;;;;;;5037628;28;20051;-57
2023/06/23 04:21:11;;;;;;;15.10;7.68;;;;;;;;;;5032467;28;20502;-57
2023/06/23 04:23:40;;;;;;;15.85;6.95;;;;;;;;;;5021519;28;20123;-57
2023/06/23 04:26:09;;;;;;;14.93;6.60;;;;;;;;;;5028091;28;20116;-57
2023/06/23 04:28:40;;;;;;;14.82;8.27;;;;;;;;;;5030075;28;20051;-57
2023/06/23 04:31:09;;;;;;;13.67;7.73;;;;;;;;;;5037548;28;20037;-57
2023/06/23 04:33:37;;;;;;;15.50;7.53;;;;;;;;;;5027129;28;20362;-56
2023/06/23 04:36:08;;;;;;;14.48;7.13;;;;;;;;;;5038731;28;20048;-57
2023/06/23 04:38:38;;;;;;;14.82;7.25;;;;;;;;;;5027314;28;20430;-57
2023/06/23 04:41:08;;;;;;;15.52;7.80;;;;;;;;;;5040834;28;20529;-58
2023/06/23 04:43:39;;;;;;;16.00;7.93;;;;;;;;;;5022782;28;20481;-58
2023/06/23 04:46:13;;;;;;;15.48;7.47;;;;;;;;;;5030527;28;20037;-57
2023/06/23 04:48:42;;;;;;;16.90;8.10;;;;;;;;;;5030692;28;20049;-58
2023/06/23 04:51:10;;;;;;;16.58;7.95;;;;;;;;;;5024561;28;20044;-57
2023/06/23 04:53:39;;;;;;;15.45;7.95;;;;;;;;;;5038059;28;20094;-57
2023/06/23 04:56:08;;;;;;;15.97;7.80;;;;;;;;;;5037950;28;20033;-57
2023/06/23 04:58:37;;;;;;;15.75;7.60;;;;;;;;;;5040186;28;20279;-57
2023/06/23 05:01:08;;;;;;;16.60;8.13;;;;;;;;;;5032963;28;20041;-57
2023/06/23 05:03:38;;;;;;;14.77;7.82;;;;;;;;;;5027908;28;20048;-57
2023/06/23 05:06:10;;;;;;;15.27;7.65;;;;;;;;;;5039091;28;20465;-58
2023/06/23 05:08:39;;;;;;;14.60;7.50;;;;;;;;;;5048314;28;20124;-57
2023/06/23 05:11:07;;;;;;;16.15;7.95;;;;;;;;;;5032034;28;20067;-56
2023/06/23 05:13:36;;;;;;;16.50;8.02;;;;;;;;;;5047969;28;20049;-57
2023/06/23 05:16:06;;;;;;;15.90;7.88;;;;;;;;;;5038247;28;20234;-57
2023/06/23 05:18:35;;;;;;;16.70;8.02;;;;;;;;;;5028060;28;20136;-57
2023/06/23 05:21:05;;;;;;;17.53;8.30;;;;;;;;;;5025511;28;20033;-57
2023/06/23 05:23:34;;;;;;;16.95;7.70;;;;;;;;;;5029731;28;20075;-58
2023/06/23 05:26:20;;;;;;;18.13;7.53;;;;;;;;;;5036091;28;20045;-57
2023/06/23 05:28:48;;;;;;;18.20;8.43;;;;;;;;;;5020383;28;20398;-56
2023/06/23 05:31:16;;;;;;;15.80;8.23;;;;;;;;;;5033123;28;20044;-58
2023/06/23 05:33:45;;;;;;;17.43;8.50;;;;;;;;;;5027038;28;20564;-57
2023/06/23 05:36:14;;;;;;;15.75;7.88;;;;;;;;;;5043120;28;20049;-58
2023/06/23 05:38:43;;;;;;;16.13;7.93;;;;;;;;;;5030739;28;20052;-57
2023/06/23 05:41:11;;;;;;;17.83;7.95;;;;;;;;;;5046921;28;20410;-56
2023/06/23 05:43:39;;;;;;;17.25;8.15;;;;;;;;;;5028980;28;20469;-57
2023/06/23 05:46:13;;;;;;;17.83;8.40;;;;;;;;;;5039044;28;20055;-57
2023/06/23 05:48:43;;;;;;;16.83;7.95;;;;;;;;;;5040033;28;20135;-57
2023/06/23 05:51:11;;;;;;;13.75;6.95;;;;;;;;;;5038595;28;20055;-57
2023/06/23 05:53:46;;;;;;;16.08;7.45;;;;;;;;;;5040526;28;20048;-57
2023/06/23 05:56:16;;;;;;;17.25;8.20;;;;;;;;;;5032310;28;20041;-58
2023/06/23 05:58:46;;;;;;;14.93;7.83;;;;;;;;;;5044613;28;20056;-57
2023/06/23 06:01:16;;;;;;;18.65;8.43;;;;;;;;;;5029681;28;20044;-58
2023/06/23 06:03:47;;;;;;;17.60;7.75;;;;;;;;;;5035673;28;20037;-56
2023/06/23 06:06:15;;;;;;;17.50;8.00;;;;;;;;;;5033272;28;20052;-57
2023/06/23 06:08:45;;;;;;;15.82;8.55;;;;;;;;;;5045267;28;20064;-57
2023/06/23 06:11:16;;;;;;;15.10;7.80;;;;;;;;;;5028761;28;20043;-57
2023/06/23 06:13:46;;;;;;;15.85;7.28;;;;;;;;;;5046772;28;20358;-57
2023/06/23 06:16:16;;;;;;;19.15;8.18;;;;;;;;;;5037334;28;20472;-57
2023/06/23 06:18:44;;;;;;;14.68;7.45;;;;;;;;;;5025477;28;20044;-58
2023/06/23 06:21:13;;;;;;;16.75;7.95;;;;;;;;;;5045624;28;20037;-57
2023/06/23 06:23:41;;;;;;;17.13;8.37;;;;;;;;;;5015277;28;20044;-57
2023/06/23 06:26:11;;;;;;;16.20;7.50;;;;;;;;;;5041933;28;20037;-57
2023/06/23 06:28:40;;;;;;;15.98;8.23;;;;;;;;;;5019229;28;20090;-57
2023/06/23 06:31:08;;;;;;;16.83;7.68;;;;;;;;;;5035347;28;20048;-57
2023/06/23 06:33:37;;;;;;;16.45;7.57;;;;;;;;;;5031626;28;20045;-57
2023/06/23 06:36:08;;;;;;;15.20;7.77;;;;;;;;;;5022791;28;20037;-57
2023/06/23 06:38:37;;;;;;;17.15;8.73;;;;;;;;;;5023653;28;20039;-58
2023/06/23 06:41:06;;;;;;;16.95;7.60;;;;;;;;;;5042755;28;20741;-57
2023/06/23 06:43:35;;;;;;;15.07;7.65;;;;;;;;;;5024319;28;20371;-58
2023/06/23 06:46:04;;;;;;;21.13;7.95;;;;;;;;;;5045055;28;20063;-58
2023/06/23 06:48:32;;;;;;;16.03;7.70;;;;;;;;;;5032801;28;20491;-57
2023/06/23 06:51:02;;;;;;;18.65;8.23;;;;;;;;;;5042232;28;20048;-58
2023/06/23 06:53:30;;;;;;;14.80;8.38;;;;;;;;;;5030871;28;20636;-58
2023/06/23 06:55:58;;;;;;;15.27;7.53;;;;;;;;;;5033533;28;20143;-58
2023/06/23 06:58:26;;;;;;;16.33;7.05;;;;;;;;;;5021735;28;20029;-57
2023/06/23 07:00:57;;;;;;;16.73;8.13;;;;;;;;;;5044490;28;20410;-58
2023/06/23 07:03:25;;;;;;;19.08;8.02;;;;;;;;;;5030028;28;20056;-58
2023/06/23 07:05:53;;;;;;;18.85;7.75;;;;;;;;;;5043365;28;20052;-57
2023/06/23 07:08:21;;;;;;;14.63;6.88;;;;;;;;;;5024327;28;20375;-57
2023/06/23 07:10:48;;;;;;;16.77;7.63;;;;;;;;;;5048414;28;20287;-57
2023/06/23 07:13:16;;;;;;;15.20;7.03;;;;;;;;;;5038417;28;20137;-59
2023/06/23 07:15:44;;;;;;;17.08;7.65;;;;;;;;;;5037621;28;20040;-57
2023/06/23 07:18:14;;;;;;;18.48;8.23;;;;;;;;;;5047374;28;20044;-58
2023/06/23 07:20:41;;;;;;;14.43;7.40;;;;;;;;;;5032451;28;20055;-54
2023/06/23 07:23:09;;;;;;;16.35;6.93;;;;;;;;;;5033365;28;20041;-58
2023/06/23 07:25:37;;;;;;;15.60;7.17;;;;;;;;;;5038215;28;20032;-58
2023/06/23 07:28:05;;;;;;;12.70;6.60;;;;;;;;;;5038604;28;20047;-58
2023/06/23 07:30:32;;;;;;;11.93;6.20;;;;;;;;;;5024551;28;20048;-58
2023/06/23 07:33:01;;;;;;;12.98;6.18;;;;;;;;;;5047072;28;20711;-58
2023/06/23 07:35:30;;;;;;;12.73;6.35;;;;;;;;;;5031325;28;20480;-59
2023/06/23 07:37:59;;;;;;;12.10;6.07;;;;;;;;;;5050540;28;20045;-58
2023/06/23 07:40:29;;;;;;;14.63;6.03;;;;;;;;;;5040256;28;20045;-58
2023/06/23 07:42:58;;;;;;;12.15;6.20;;;;;;;;;;5029091;28;20510;-58
2023/06/23 07:45:25;;;;;;;10.65;5.95;;;;;;;;;;5038629;28;20033;-58
2023/06/23 07:47:53;;;;;;;12.95;5.25;;;;;;;;;;5016197;28;20089;-58
2023/06/23 07:50:21;;;;;;;13.43;5.67;;;;;;;;;;5038850;28;20040;-58
2023/06/23 07:52:54;;;;;;;9.95;5.18;;;;;;;;;;5020107;28;20033;-58
2023/06/23 07:55:22;;;;;;;11.02;5.03;;;;;;;;;;5037869;28;20040;-58
2023/06/23 07:57:50;;;;;;;11.60;5.32;;;;;;;;;;5027507;28;20033;-58
2023/06/23 08:00:18;;;;;;;12.73;5.10;;;;;;;;;;5031022;28;20507;-58
2023/06/23 08:02:46;;;;;;;9.50;4.90;;;;;;;;;;5030157;28;20033;-58
2023/06/23 08:05:14;;;;;;;9.38;5.10;;;;;;;;;;5012641;28;21105;-58
2023/06/23 08:07:42;;;;;;;10.45;5.22;;;;;;;;;;5037161;28;20040;-56
2023/06/23 08:10:11;;;;;;;12.02;5.65;;;;;;;;;;5019703;28;20060;-58
2023/06/23 08:12:39;;;;;;;10.00;4.65;;;;;;;;;;5038883;28;20143;-57
2023/06/23 08:15:07;;;;;;;10.53;5.93;;;;;;;;;;5019426;28;20657;-58
2023/06/23 08:17:35;;;;;;;10.93;5.65;;;;;;;;;;5031365;28;20045;-57
2023/06/23 08:20:03;;;;;;;9.10;5.22;;;;;;;;;;5023271;28;20618;-58
2023/06/23 08:22:31;;;;;;;12.93;5.22;;;;;;;;;;5029994;28;20128;-58
2023/06/23 08:24:59;;;;;;;9.38;5.43;;;;;;;;;;5042489;28;20033;-58
2023/06/23 08:27:29;;;;;;;9.73;5.07;;;;;;;;;;5020356;28;20039;-58
2023/06/23 08:29:58;;;;;;;8.70;4.55;;;;;;;;;;5047982;28;20043;-58
2023/06/23 08:32:29;;;;;;;10.73;5.30;;;;;;;;;;5025039;28;20037;-57
2023/06/23 08:34:57;;;;;;;9.50;4.28;;;;;;;;;;5038345;28;20045;-58
2023/06/23 08:37:25;;;;;;;9.02;5.00;;;;;;;;;;5020813;28;20499;-60
2023/06/23 08:39:55;;;;;;;9.77;4.90;;;;;;;;;;5000952;28;20711;-58
2023/06/23 08:42:23;;;;;;;11.63;5.07;;;;;;;;;;5019541;28;20059;-58
2023/06/23 08:44:56;;;;;;;8.63;4.75;;;;;;;;;;5021842;28;20047;-58
2023/06/23 08:47:26;;;;;;;8.57;4.65;;;;;;;;;;5015150;28;20041;-58
2023/06/23 08:49:55;;;;;;;8.13;4.53;;;;;;;;;;5022542;28;20259;-58
2023/06/23 08:52:22;;;;;;;8.13;4.50;;;;;;;;;;5015575;28;20040;-58
2023/06/23 08:54:50;;;;;;;8.77;4.45;;;;;;;;;;5007995;28;20674;-58
2023/06/23 08:57:19;;;;;;;9.20;4.35;;;;;;;;;;5022318;28;20056;-60
2023/06/23 08:59:47;;;;;;;10.35;4.40;;;;;;;;;;5005888;28;20063;-58
2023/06/23 09:02:16;;;;;;;8.00;3.60;;;;;;;;;;5021720;28;20821;-58
2023/06/23 09:04:44;;;;;;;7.47;3.77;;;;;;;;;;5015735;28;20048;-58
2023/06/23 09:07:13;;;;;;;7.15;3.72;;;;;;;;;;5025207;28;20482;-58
2023/06/23 09:09:42;;;;;;;9.93;4.78;;;;;;;;;;5011906;28;21020;-58
2023/06/23 09:12:11;;;;;;;7.90;4.43;;;;;;;;;;5025735;28;20048;-57
2023/06/23 09:14:39;;;;;;;9.35;4.32;;;;;;;;;;4998728;28;20123;-58
2023/06/23 09:17:09;;;;;;;8.50;4.17;;;;;;;;;;5023904;28;20506;-58
2023/06/23 09:19:39;;;;;;;7.55;4.43;;;;;;;;;;5014012;28;20051;-58
2023/06/23 09:22:08;;;;;;;11.10;4.38;;;;;;;;;;5017601;28;20132;-60
2023/06/23 09:24:44;;;;;;;7.70;3.80;;;;;;;;;;5031777;28;20052;-60
2023/06/23 09:27:13;;;;;;;7.43;4.20;;;;;;;;;;5026718;28;20132;-63
2023/06/23 09:29:41;;;;;;;8.67;4.03;;;;;;;;;;5028111;28;20048;-57
2023/06/23 09:32:09;;;;;;;7.75;4.38;;;;;;;;;;5010436;28;20032;-58
2023/06/23 09:34:38;;;;;;;9.95;4.20;;;;;;;;;;5026229;28;20039;-57
2023/06/23 09:37:08;;;;;;;7.28;3.72;;;;;;;;;;5010412;28;20059;-58
2023/06/23 09:39:38;;;;;;;7.93;3.78;;;;;;;;;;5019424;28;20143;-57
2023/06/23 09:42:12;;;;;;;9.03;4.03;;;;;;;;;;5023893;28;20129;-58
2023/06/23 09:44:40;;;;;;;7.43;4.05;;;;;;;;;;5018504;28;20044;-58
2023/06/23 09:47:08;;;;;;;7.97;4.15;;;;;;;;;;5027901;28;20086;-58
2023/06/23 09:49:40;;;;;;;8.38;3.95;;;;;;;;;;5006734;28;20072;-58
2023/06/23 09:52:10;;;;;;;8.38;4.20;;;;;;;;;;5031243;28;20053;-59
2023/06/23 09:54:39;;;;;;;7.43;4.00;;;;;;;;;;5011132;28;21525;-58
2023/06/23 09:57:08;;;;;;;7.53;4.00;;;;;;;;;;5026976;28;20634;-58
2023/06/23 09:59:37;;;;;;;7.72;3.45;;;;;;;;;;5000207;28;20467;-59
2023/06/23 10:02:06;;;;;;;7.05;3.78;;;;;;;;;;5017163;28;20548;-58
2023/06/23 10:04:35;;;;;;;6.88;3.72;;;;;;;;;;5020189;28;20036;-59
2023/06/23 10:25:37;;;;;;;8.77;3.57;;;;;;;;;;6125458;22;1477222;-60
2023/06/23 10:28:06;;;;;;;7.03;3.55;;;;;;;;;;6167710;23;20507;-61
2023/06/23 10:30:34;;;;;;;7.18;3.63;;;;;;;;;;6167548;23;20024;-60
2023/06/23 10:33:03;;;;;;;6.17;3.80;;;;;;;;;;6179944;23;20103;-61
2023/06/23 10:35:33;;;;;;;8.88;3.70;;;;;;;;;;6168713;23;20092;-60
2023/06/23 10:38:07;;;;;;;5.80;2.80;;;;;;;;;;6170521;23;20020;-61
2023/06/23 10:40:39;;;;;;;7.22;3.90;;;;;;;;;;6180142;23;20175;-61
2023/06/23 10:43:07;;;;;;;7.28;3.35;;;;;;;;;;6171326;23;20091;-61
2023/06/23 10:45:36;;;;;;;6.50;3.57;;;;;;;;;;6181106;23;20019;-61
2023/06/23 10:48:04;;;;;;;7.03;3.20;;;;;;;;;;6189538;23;20020;-60
2023/06/23 10:50:33;;;;;;;6.95;3.60;;;;;;;;;;6192298;23;20027;-60
2023/06/23 10:53:10;;;;;;;7.28;3.88;;;;;;;;;;6187683;23;20027;-60
2023/06/23 10:55:41;;;;;;;6.22;2.95;;;;;;;;;;6193289;23;20012;-60
2023/06/23 10:58:29;;;;;;;7.40;3.60;;;;;;;;;;6187189;23;20460;-60
2023/06/23 11:01:00;;;;;;;6.07;3.20;;;;;;;;;;6184496;23;20323;-61
2023/06/23 11:03:29;;;;;;;7.68;3.25;;;;;;;;;;6180934;23;20017;-62
2023/06/23 11:05:57;;;;;;;8.38;4.47;;;;;;;;;;6175706;23;20020;-61
2023/06/23 11:08:28;;;;;;;7.82;3.90;;;;;;;;;;6172333;23;20020;-61
2023/06/23 11:11:02;;;;;;;8.40;3.97;;;;;;;;;;6166777;23;20055;-61
2023/06/23 11:13:38;;;;;;;9.05;3.90;;;;;;;;;;6174292;23;20073;-61
2023/06/23 11:16:06;;;;;;;7.07;3.13;;;;;;;;;;6177108;23;20418;-61
2023/06/23 11:18:34;;;;;;;6.40;3.70;;;;;;;;;;6168275;23;20035;-59
2023/06/23 11:21:03;;;;;;;7.75;3.88;;;;;;;;;;6161761;23;20452;-53
2023/06/23 11:23:33;;;;;;;6.33;3.20;;;;;;;;;;6174809;23;20021;-61
2023/06/23 11:26:02;;;;;;;7.22;3.70;;;;;;;;;;6164378;23;20024;-60
2023/06/23 11:28:34;;;;;;;6.78;2.80;;;;;;;;;;6155180;23;20937;-60
2023/06/23 11:31:03;;;;;;;7.72;3.80;;;;;;;;;;6168124;23;20697;-55
2023/06/23 11:33:32;;;;;;;6.78;3.38;;;;;;;;;;6163083;23;20048;-60
2023/06/23 11:36:00;;;;;;;6.47;2.70;;;;;;;;;;6169899;23;20084;-60
2023/06/23 11:38:28;;;;;;;6.72;3.10;;;;;;;;;;6152486;23;20024;-59
2023/06/23 11:40:56;;;;;;;6.10;2.88;;;;;;;;;;6167192;23;20017;-60
2023/06/23 11:43:25;;;;;;;5.68;2.70;;;;;;;;;;6162395;23;20016;-60
2023/06/23 11:45:55;;;;;;;7.25;3.15;;;;;;;;;;6174271;23;20163;-61
2023/06/23 11:48:26;;;;;;;7.30;2.93;;;;;;;;;;6158261;23;20040;-60
2023/06/23 11:50:54;;;;;;;5.93;2.85;;;;;;;;;;6177557;23;20071;-60
2023/06/23 11:53:22;;;;;;;7.07;3.30;;;;;;;;;;6166102;23;20699;-60
2023/06/23 11:55:52;;;;;;;5.95;2.55;;;;;;;;;;6167351;23;20082;-60
2023/06/23 11:58:20;;;;;;;5.85;2.67;;;;;;;;;;6155965;23;20020;-61
2023/06/23 12:00:49;;;;;;;5.83;2.40;;;;;;;;;;6174571;23;20016;-60
2023/06/23 12:03:17;;;;;;;5.40;2.72;;;;;;;;;;6162015;23;20016;-61
2023/06/23 12:05:46;;;;;;;5.30;2.60;;;;;;;;;;6169414;23;20048;-60
2023/06/23 12:08:15;;;;;;;5.75;2.42;;;;;;;;;;6146072;23;20043;-60
2023/06/23 12:10:43;;;;;;;5.63;2.47;;;;;;;;;;6176921;23;20027;-59
2023/06/23 12:13:13;;;;;;;6.50;2.47;;;;;;;;;;6154712;23;20425;-60
2023/06/23 12:15:41;;;;;;;6.20;2.88;;;;;;;;;;6169650;23;20020;-60
2023/06/23 12:18:11;;;;;;;5.60;2.40;;;;;;;;;;6165284;23;20027;-60
2023/06/23 12:20:40;;;;;;;6.20;2.80;;;;;;;;;;6166501;23;20487;-60
2023/06/23 12:23:10;;;;;;;6.80;2.88;;;;;;;;;;6170548;23;20027;-60
2023/06/23 12:25:39;;;;;;;6.93;2.80;;;;;;;;;;6155918;23;20016;-60
2023/06/23 12:28:11;;;;;;;5.30;2.15;;;;;;;;;;6159010;23;20016;-60
2023/06/23 12:30:41;;;;;;;6.05;2.65;;;;;;;;;;6153325;23;20044;-60
2023/06/23 12:33:21;;;;;;;5.72;3.08;;;;;;;;;;6174543;23;20042;-61
2023/06/23 12:35:57;;;;;;;5.22;2.50;;;;;;;;;;6164934;23;20345;-60
2023/06/23 12:38:26;;;;;;;5.77;2.60;;;;;;;;;;6148180;23;20017;-60
2023/06/23 12:40:54;;;;;;;6.25;2.67;;;;;;;;;;6175575;23;20115;-60
2023/06/23 12:43:22;;;;;;;6.30;2.80;;;;;;;;;;6158638;23;20043;-59
2023/06/23 12:45:50;;;;;;;7.57;3.30;;;;;;;;;;6172792;23;20028;-60
2023/06/23 12:48:22;;;;;;;4.80;2.53;;;;;;;;;;6157459;23;20027;-59
2023/06/23 12:50:53;;;;;;;5.33;2.60;;;;;;;;;;6162953;23;20108;-60
2023/06/23 12:53:21;;;;;;;5.13;2.40;;;;;;;;;;6162405;23;20023;-60
2023/06/23 12:55:48;;;;;;;5.45;2.47;;;;;;;;;;6168910;23;20451;-60
2023/06/23 12:58:16;;;;;;;5.47;2.58;;;;;;;;;;6155707;23;20029;-62
2023/06/23 13:00:44;;;;;;;5.13;2.35;;;;;;;;;;6167267;23;20020;-62
2023/06/23 13:03:13;;;;;;;5.90;2.10;;;;;;;;;;6167236;23;20016;-62
2023/06/23 13:05:47;;;;;;;5.32;2.20;;;;;;;;;;6170076;23;20028;-61
2023/06/23 13:08:19;;;;;;;4.82;2.20;;;;;;;;;;6140659;23;20108;-62
2023/06/23 13:10:47;;;;;;;5.78;2.53;;;;;;;;;;6166586;23;20031;-62
2023/06/23 13:13:15;;;;;;;4.72;2.25;;;;;;;;;;6162159;23;20123;-62
2023/06/23 13:15:43;;;;;;;6.07;2.63;;;;;;;;;;6166986;23;20016;-63
2023/06/23 13:18:11;;;;;;;5.63;2.53;;;;;;;;;;6169742;23;20013;-63
2023/06/23 13:20:39;;;;;;;5.63;2.15;;;;;;;;;;6152763;23;20031;-63
2023/06/23 13:23:09;;;;;;;4.72;1.98;;;;;;;;;;6176188;23;20025;-62
2023/06/23 13:25:37;;;;;;;5.65;1.90;;;;;;;;;;6151585;23;20008;-62
2023/06/23 13:28:06;;;;;;;4.73;1.60;;;;;;;;;;6162551;23;20672;-62
2023/06/23 13:30:34;;;;;;;5.07;2.08;;;;;;;;;;6164342;23;20912;-60
2023/06/23 13:33:02;;;;;;;5.65;2.45;;;;;;;;;;6167253;23;20021;-60
2023/06/23 13:35:30;;;;;;;6.07;2.72;;;;;;;;;;6162369;23;20017;-60
2023/06/23 13:37:59;;;;;;;6.65;2.67;;;;;;;;;;6163272;23;20514;-60
2023/06/23 13:40:34;;;;;;;5.47;2.77;;;;;;;;;;6168523;23;20031;-60
2023/06/23 13:43:03;;;;;;;5.03;2.42;;;;;;;;;;6164575;23;20379;-60
2023/06/23 13:45:31;;;;;;;4.95;2.38;;;;;;;;;;6167629;23;20023;-59
2023/06/23 13:48:00;;;;;;;5.75;2.20;;;;;;;;;;6153960;23;20517;-61
2023/06/23 13:50:27;;;;;;;6.30;2.50;;;;;;;;;;6170059;23;20108;-60
2023/06/23 13:52:55;;;;;;;5.07;2.30;;;;;;;;;;6166040;23;20380;-60
2023/06/23 13:55:25;;;;;;;5.47;2.58;;;;;;;;;;6166162;23;20055;-60
2023/06/23 13:57:54;;;;;;;5.03;2.53;;;;;;;;;;6154950;23;20020;-60
2023/06/23 14:00:25;;;;;;;7.32;2.17;;;;;;;;;;6180837;23;20020;-59
2023/06/23 14:02:54;;;;;;;8.27;3.50;;;;;;;;;;6179658;23;20024;-60
2023/06/23 14:05:23;;;;;;;6.97;2.70;;;;;;;;;;6182129;23;20021;-59
2023/06/23 14:07:52;;;;;;;5.53;3.22;;;;;;;;;;6171540;23;20559;-59
2023/06/23 14:10:22;;;;;;;5.60;3.10;;;;;;;;;;6186189;23;20059;-56
2023/06/23 14:12:50;;;;;;;5.75;2.78;;;;;;;;;;6173119;23;20023;-59
2023/06/23 14:15:19;;;;;;;7.28;3.30;;;;;;;;;;6174876;23;20447;-59
2023/06/23 14:17:48;;;;;;;8.40;3.17;;;;;;;;;;6183755;23;20467;-59
2023/06/23 14:20:16;;;;;;;5.82;3.22;;;;;;;;;;6181319;23;20469;-59
2023/06/23 14:22:47;;;;;;;5.88;2.30;;;;;;;;;;6181227;23;20027;-59
2023/06/23 14:25:14;;;;;;;6.57;3.22;;;;;;;;;;6169016;23;20475;-59
2023/06/23 14:27:46;;;;;;;5.40;2.35;;;;;;;;;;6179116;23;20027;-60
2023/06/23 14:30:14;;;;;;;4.50;1.77;;;;;;;;;;6176814;23;20025;-60
2023/06/23 14:32:48;;;;;;;5.85;2.92;;;;;;;;;;6186908;23;20066;-58
2023/06/23 14:35:17;;;;;;;6.25;3.53;;;;;;;;;;6173014;23;20021;-60
2023/06/23 14:37:44;;;;;;;6.00;2.83;;;;;;;;;;6184280;23;20017;-60
2023/06/23 14:40:13;;;;;;;5.80;3.00;;;;;;;;;;6175458;23;20103;-59
2023/06/23 14:42:42;;;;;;;5.00;2.33;;;;;;;;;;6186399;23;20103;-60
2023/06/23 14:45:11;;;;;;;4.68;2.45;;;;;;;;;;6178523;23;20016;-59
2023/06/23 14:47:40;;;;;;;4.90;2.08;;;;;;;;;;6186655;23;20558;-59
2023/06/23 14:50:10;;;;;;;5.78;2.15;;;;;;;;;;6166614;23;20343;-60
2023/06/23 14:52:38;;;;;;;5.85;2.25;;;;;;;;;;6184895;23;20095;-59
2023/06/23 14:55:06;;;;;;;5.23;2.83;;;;;;;;;;6178965;23;20021;-59
2023/06/23 14:57:34;;;;;;;5.60;2.97;;;;;;;;;;6182808;23;20079;-59
2023/06/23 15:00:03;;;;;;;6.00;2.90;;;;;;;;;;6176587;23;20275;-59
2023/06/23 15:02:31;;;;;;;8.23;2.90;;;;;;;;;;6186855;23;20013;-59
2023/06/23 15:04:59;;;;;;;5.05;2.58;;;;;;;;;;6182282;23;20079;-58
2023/06/23 15:07:28;;;;;;;5.53;2.60;;;;;;;;;;6188876;23;20713;-59